createdAt,value
2024-01-15T00:00:24.730Z,72.25
2024-01-15T00:03:10.953Z,72.24
2024-01-15T00:05:56.570Z,72.36
2024-01-15T00:08:41.955Z,72.30
2024-01-15T00:11:27.408Z,72.37
2024-01-15T00:14:15.266Z,71.92
2024-01-15T00:17:01.036Z,72.04
2024-01-15T00:19:46.679Z,72.08
2024-01-15T00:22:33.213Z,71.96
2024-01-15T00:25:19.084Z,72.17
2024-01-15T00:28:04.979Z,72.38
2024-01-15T00:30:50.822Z,72.20
2024-01-15T00:33:36.748Z,72.48
2024-01-15T00:36:22.578Z,72.17
2024-01-15T00:39:08.092Z,72.37
2024-01-15T00:41:53.709Z,72.20
2024-01-15T00:44:39.256Z,72.28
2024-01-15T00:47:24.748Z,72.12
2024-01-15T00:50:10.712Z,72.33
2024-01-15T00:52:56.417Z,72.30
2024-01-15T00:55:41.924Z,72.31
2024-01-15T00:58:27.877Z,72.56
2024-01-15T01:01:13.650Z,72.25
2024-01-15T01:03:59.570Z,72.53
2024-01-15T01:06:45.559Z,72.48
2024-01-15T01:09:31.522Z,72.41
2024-01-15T01:12:17.876Z,72.32
2024-01-15T01:15:03.527Z,72.56
2024-01-15T01:17:49.442Z,72.41
2024-01-15T01:20:35.363Z,72.38
2024-01-15T01:23:20.764Z,72.59
2024-01-15T01:26:06.326Z,72.55
2024-01-15T01:28:51.795Z,72.63
2024-01-15T01:31:37.374Z,72.91
2024-01-15T01:34:23.430Z,72.87
2024-01-15T01:37:08.857Z,72.58
2024-01-15T01:39:54.521Z,72.58
2024-01-15T01:42:39.936Z,72.70
2024-01-15T01:45:25.339Z,72.57
2024-01-15T01:48:10.986Z,72.67
2024-01-15T01:50:59.177Z,72.66
2024-01-15T01:53:46.690Z,72.78
2024-01-15T01:56:32.333Z,72.59
2024-01-15T01:59:18.508Z,72.98
2024-01-15T02:02:05.366Z,72.81
2024-01-15T02:04:50.773Z,72.89
2024-01-15T02:07:37.204Z,72.61
2024-01-15T02:10:22.593Z,72.71
2024-01-15T02:13:08.097Z,73.00
2024-01-15T02:15:53.987Z,72.86
2024-01-15T02:18:47.956Z,72.98
2024-01-15T02:21:36.793Z,72.88
2024-01-15T02:24:22.199Z,73.23
2024-01-15T02:27:09.810Z,73.15
2024-01-15T02:29:56.448Z,73.20
2024-01-15T02:32:42.336Z,73.10
2024-01-15T02:35:28.104Z,73.13
2024-01-15T02:38:13.665Z,73.11
2024-01-15T02:41:00.213Z,73.12
2024-01-15T02:43:46.215Z,72.89
2024-01-15T02:46:31.877Z,73.25
2024-01-15T02:49:17.515Z,72.97
2024-01-15T02:52:03.734Z,73.14
2024-01-15T02:54:49.151Z,73.03
2024-01-15T02:57:34.584Z,72.81
2024-01-15T03:00:21.380Z,73.04
2024-01-15T03:03:06.947Z,73.19
2024-01-15T03:05:52.995Z,72.74
2024-01-15T03:08:38.862Z,72.65
2024-01-15T03:11:24.582Z,72.97
2024-01-15T03:14:13.264Z,72.92
2024-01-15T03:16:59.006Z,72.90
2024-01-15T03:19:44.899Z,73.08
2024-01-15T03:22:33.522Z,73.16
2024-01-15T03:25:23.693Z,72.97
2024-01-15T03:28:09.185Z,72.88
2024-01-15T03:30:54.682Z,72.68
2024-01-15T03:33:40.307Z,73.01
2024-01-15T03:36:26.142Z,73.03
2024-01-15T03:39:14.833Z,73.10
2024-01-15T03:42:00.478Z,72.91
2024-01-15T03:44:46.143Z,73.27
2024-01-15T03:47:31.649Z,73.20
2024-01-15T03:50:17.233Z,73.28
2024-01-15T03:53:05.892Z,73.56
2024-01-15T03:55:53.857Z,73.50
2024-01-15T03:58:39.791Z,73.26
2024-01-15T04:01:25.376Z,73.62
2024-01-15T04:04:11.260Z,73.63
2024-01-15T04:06:57.919Z,73.65
2024-01-15T04:09:43.497Z,73.44
2024-01-15T04:12:29.106Z,73.58
2024-01-15T04:15:14.618Z,73.66
2024-01-15T04:18:00.651Z,73.65
2024-01-15T04:20:49.248Z,73.44
2024-01-15T04:23:35.016Z,73.34
2024-01-15T04:26:22.921Z,73.28
2024-01-15T04:29:08.309Z,73.14
2024-01-15T04:31:54.828Z,73.29
2024-01-15T04:34:40.604Z,73.14
2024-01-15T04:37:26.378Z,73.26
2024-01-15T04:40:14.944Z,73.10
2024-01-15T04:43:00.810Z,72.95
2024-01-15T04:45:46.459Z,73.09
2024-01-15T04:48:32.002Z,73.33
2024-01-15T04:51:20.460Z,72.95
2024-01-15T04:54:06.042Z,73.30
2024-01-15T04:56:51.477Z,73.34
2024-01-15T04:59:36.865Z,73.70
2024-01-15T05:02:22.547Z,73.57
2024-01-15T05:05:08.061Z,73.46
2024-01-15T05:07:55.821Z,73.61
2024-01-15T05:10:41.268Z,73.68
2024-01-15T05:13:27.059Z,73.57
2024-01-15T05:16:12.669Z,73.52
2024-01-15T05:18:58.613Z,73.52
2024-01-15T05:21:44.083Z,73.76
2024-01-15T05:24:32.752Z,73.55
2024-01-15T05:27:18.093Z,73.66
2024-01-15T05:30:04.132Z,73.76
2024-01-15T05:32:49.501Z,73.46
2024-01-15T05:35:35.573Z,73.44
2024-01-15T05:38:21.398Z,73.49
2024-01-15T05:41:07.265Z,73.32
2024-01-15T05:43:52.832Z,73.38
2024-01-15T05:46:41.263Z,73.38
2024-01-15T05:49:27.367Z,73.52
2024-01-15T05:52:14.933Z,73.53
2024-01-15T05:55:00.410Z,73.51
2024-01-15T05:57:46.590Z,73.34
2024-01-15T06:00:34.125Z,73.65
2024-01-15T06:03:19.773Z,73.86
2024-01-15T06:06:06.124Z,73.84
2024-01-15T06:08:53.456Z,73.93
2024-01-15T06:11:39.048Z,73.92
2024-01-15T06:14:24.552Z,73.64
2024-01-15T06:17:10.552Z,73.76
2024-01-15T06:19:56.323Z,73.72
2024-01-15T06:22:42.119Z,73.78
2024-01-15T06:25:27.546Z,73.87
2024-01-15T06:28:13.050Z,74.28
2024-01-15T06:30:59.642Z,73.98
2024-01-15T06:33:48.661Z,74.09
2024-01-15T06:36:34.136Z,74.42
2024-01-15T06:39:19.599Z,74.12
2024-01-15T06:42:05.385Z,74.05
2024-01-15T06:44:51.092Z,74.40
2024-01-15T06:47:36.695Z,74.23
2024-01-15T06:50:22.431Z,74.44
2024-01-15T06:53:08.252Z,74.22
2024-01-15T06:55:53.938Z,74.04
2024-01-15T06:58:41.422Z,73.93
2024-01-15T07:01:26.811Z,74.08
2024-01-15T07:04:12.655Z,74.46
2024-01-15T07:06:58.098Z,74.65
2024-01-15T07:09:43.744Z,74.13
2024-01-15T07:12:32.344Z,74.60
2024-01-15T07:15:17.803Z,74.57
2024-01-15T07:18:03.449Z,74.01
2024-01-15T07:20:52.077Z,74.01
2024-01-15T07:23:37.856Z,74.17
2024-01-15T07:26:23.783Z,73.97
2024-01-15T07:29:09.666Z,74.13
2024-01-15T07:31:55.608Z,74.11
2024-01-15T07:34:41.455Z,73.83
2024-01-15T07:37:27.543Z,73.90
2024-01-15T07:40:13.447Z,73.95
2024-01-15T07:42:59.188Z,73.95
2024-01-15T07:45:46.219Z,73.92
2024-01-15T07:48:32.120Z,73.75
2024-01-15T07:51:18.082Z,74.13
2024-01-15T07:54:03.561Z,74.37
2024-01-15T07:56:56.144Z,74.00
2024-01-15T07:59:41.714Z,74.21
2024-01-15T08:02:27.246Z,74.26
2024-01-15T08:05:12.835Z,74.22
2024-01-15T08:07:59.507Z,74.47
2024-01-15T08:10:45.061Z,74.48
2024-01-15T08:13:30.638Z,74.66
2024-01-15T08:16:16.348Z,74.42
2024-01-15T08:19:01.789Z,74.43
2024-01-15T08:21:47.807Z,74.31
2024-01-15T08:24:33.193Z,74.11
2024-01-15T08:27:18.962Z,74.05
2024-01-15T08:30:05.565Z,74.34
2024-01-15T08:32:51.454Z,73.56
2024-01-15T08:35:37.296Z,73.92
2024-01-15T08:38:22.878Z,73.55
2024-01-15T08:41:09.483Z,73.70
2024-01-15T08:43:55.205Z,73.73
2024-01-15T08:46:43.907Z,73.63
2024-01-15T08:49:29.492Z,73.77
2024-01-15T08:52:15.142Z,73.71
2024-01-15T08:55:02.209Z,73.49
2024-01-15T08:57:47.797Z,73.57
2024-01-15T09:00:33.649Z,73.20
2024-01-15T09:03:19.602Z,72.92
2024-01-15T09:06:05.283Z,72.56
2024-01-15T09:08:51.027Z,71.95
2024-01-15T09:11:36.549Z,72.00
2024-01-15T09:14:33.049Z,72.02
2024-01-15T09:17:24.766Z,71.92
2024-01-15T09:20:12.118Z,71.96
2024-01-15T09:22:57.787Z,72.07
2024-01-15T09:25:43.376Z,72.00
2024-01-15T09:28:29.156Z,71.46
2024-01-15T09:31:18.849Z,71.45
2024-01-15T09:34:04.886Z,71.26
2024-01-15T09:36:50.934Z,71.48
2024-01-15T09:39:36.343Z,71.73
2024-01-15T09:42:22.501Z,71.31
2024-01-15T09:45:09.096Z,71.29
2024-01-15T09:47:54.762Z,71.72
2024-01-15T09:50:40.497Z,71.88
2024-01-15T09:53:26.863Z,71.50
2024-01-15T09:56:16.367Z,71.83
2024-01-15T09:59:02.535Z,71.62
2024-01-15T10:01:51.413Z,71.40
2024-01-15T10:04:36.993Z,71.71
2024-01-15T10:07:24.235Z,70.92
2024-01-15T10:10:12.304Z,70.91
2024-01-15T10:12:59.571Z,71.35
2024-01-15T10:15:48.469Z,70.68
2024-01-15T10:18:34.192Z,70.64
2024-01-15T10:21:20.329Z,70.53
2024-01-15T10:24:06.075Z,70.71
2024-01-15T10:26:51.862Z,69.85
2024-01-15T10:29:37.728Z,69.60
2024-01-15T10:32:25.223Z,69.66
2024-01-15T10:35:11.693Z,69.62
2024-01-15T10:37:58.429Z,69.21
2024-01-15T10:40:44.444Z,69.57
2024-01-15T10:43:30.900Z,69.85
2024-01-15T10:46:16.854Z,70.10
2024-01-15T10:49:03.151Z,70.45
2024-01-15T10:51:49.745Z,70.30
2024-01-15T10:54:36.918Z,70.96
2024-01-15T10:57:24.434Z,70.26
2024-01-15T11:00:12.204Z,70.05
2024-01-15T11:02:58.979Z,70.22
2024-01-15T11:05:45.741Z,70.01
2024-01-15T11:08:32.850Z,69.89
2024-01-15T11:11:19.584Z,69.82
2024-01-15T11:14:05.426Z,69.65
2024-01-15T11:17:00.483Z,70.23
2024-01-15T11:19:48.337Z,70.14
2024-01-15T11:22:50.219Z,70.42
2024-01-15T11:25:38.724Z,70.20
2024-01-15T11:28:50.133Z,70.53
2024-01-15T11:31:41.936Z,70.80
2024-01-15T11:35:04.967Z,70.38
2024-01-15T11:37:56.088Z,70.65
2024-01-15T11:40:44.163Z,71.13
2024-01-15T11:43:32.953Z,71.00
2024-01-15T11:46:19.604Z,71.50
2024-01-15T11:49:07.156Z,70.89
2024-01-15T11:51:55.773Z,71.46
2024-01-15T11:54:49.543Z,71.32
2024-01-15T11:57:56.136Z,71.13
2024-01-15T12:00:43.991Z,71.32
2024-01-15T12:03:29.634Z,71.26
2024-01-15T12:06:15.669Z,71.05
2024-01-15T12:09:11.496Z,71.13
2024-01-15T12:12:08.103Z,71.41
2024-01-15T12:14:53.985Z,71.03
2024-01-15T12:17:40.046Z,71.02
2024-01-15T12:20:26.659Z,71.28
2024-01-15T12:23:12.759Z,70.72
2024-01-15T12:25:58.901Z,71.17
2024-01-15T12:28:44.320Z,71.24
2024-01-15T12:31:31.240Z,70.88
2024-01-15T12:34:18.390Z,71.09
2024-01-15T12:37:03.805Z,70.93
2024-01-15T12:39:49.623Z,70.95
2024-01-15T12:42:35.493Z,70.99
2024-01-15T12:45:21.633Z,71.08
2024-01-15T12:48:07.711Z,70.64
2024-01-15T12:50:53.701Z,70.80
2024-01-15T12:53:39.413Z,70.65
2024-01-15T12:56:25.097Z,70.34
2024-01-15T12:59:10.550Z,70.21
2024-01-15T13:01:56.599Z,70.14
2024-01-15T13:04:42.062Z,70.46
2024-01-15T13:07:27.807Z,70.25
2024-01-15T13:10:14.553Z,70.63
2024-01-15T13:13:00.552Z,70.29
2024-01-15T13:15:46.424Z,70.02
2024-01-15T13:18:32.362Z,70.44
2024-01-15T13:21:18.160Z,70.14
2024-01-15T13:24:06.582Z,70.50
2024-01-15T13:26:51.936Z,70.38
2024-01-15T13:29:37.597Z,70.54
2024-01-15T13:32:30.553Z,70.67
2024-01-15T13:35:16.684Z,69.95
2024-01-15T13:38:02.705Z,69.96
2024-01-15T13:40:48.738Z,70.31
2024-01-15T13:43:34.503Z,70.35
2024-01-15T13:46:30.815Z,70.09
2024-01-15T13:49:16.496Z,70.31
2024-01-15T13:52:02.009Z,70.22
2024-01-15T13:54:50.439Z,70.27
2024-01-15T13:57:37.065Z,70.41
2024-01-15T14:00:23.372Z,70.70
2024-01-15T14:03:09.730Z,70.81
2024-01-15T14:05:56.940Z,70.26
2024-01-15T14:08:42.475Z,70.57
2024-01-15T14:11:28.089Z,70.88
2024-01-15T14:14:13.662Z,70.34
2024-01-15T14:16:59.393Z,70.29
2024-01-15T14:19:44.839Z,70.54
2024-01-15T14:22:30.205Z,70.54
2024-01-15T14:25:15.850Z,70.75
2024-01-15T14:28:01.351Z,70.54
2024-01-15T14:30:46.967Z,70.76
2024-01-15T14:33:33.871Z,70.87
2024-01-15T14:36:20.654Z,70.90
2024-01-15T14:39:06.289Z,70.78
2024-01-15T14:41:53.137Z,70.47
2024-01-15T14:44:40.895Z,70.50
2024-01-15T14:47:26.588Z,70.83
2024-01-15T14:50:13.718Z,70.49
2024-01-15T14:52:59.406Z,70.81
2024-01-15T14:55:45.366Z,70.66
2024-01-15T14:58:31.135Z,70.41
2024-01-15T15:01:17.467Z,70.35
2024-01-15T15:04:03.555Z,70.55
2024-01-15T15:06:49.364Z,70.39
2024-01-15T15:09:35.665Z,70.27
2024-01-15T15:12:21.392Z,70.46
2024-01-15T15:15:10.965Z,70.27
2024-01-15T15:17:58.454Z,70.35
2024-01-15T15:20:44.030Z,70.29
2024-01-15T15:23:29.480Z,70.27
2024-01-15T15:26:15.359Z,70.17
2024-01-15T15:29:00.851Z,70.25
2024-01-15T15:31:46.327Z,70.23
2024-01-15T15:34:32.522Z,70.32
2024-01-15T15:37:18.642Z,70.30
2024-01-15T15:40:09.609Z,70.71
2024-01-15T15:42:55.905Z,70.42
2024-01-15T15:45:41.187Z,70.51
2024-01-15T15:48:26.925Z,70.44
2024-01-15T15:51:12.840Z,70.65
2024-01-15T15:53:58.814Z,70.54
2024-01-15T15:56:48.840Z,70.57
2024-01-15T15:59:34.347Z,71.03
2024-01-15T16:02:19.792Z,70.92
2024-01-15T16:05:10.824Z,70.86
2024-01-15T16:07:56.447Z,70.65
2024-01-15T16:10:42.076Z,71.11
2024-01-15T16:13:27.864Z,70.73
2024-01-15T16:23:10.276Z,70.98
2024-01-15T16:23:24.541Z,70.76
2024-01-15T16:23:41.700Z,71.30
2024-01-15T16:25:31.967Z,70.74
2024-01-15T16:28:17.897Z,71.33
2024-01-15T16:31:08.318Z,71.14
2024-01-15T16:33:58.359Z,71.21
2024-01-15T16:36:47.573Z,71.11
2024-01-15T16:39:34.790Z,71.24
2024-01-15T16:42:23.155Z,71.36
2024-01-15T16:45:09.797Z,71.22
2024-01-15T16:47:55.414Z,71.09
2024-01-15T16:50:41.558Z,71.20
2024-01-15T16:53:27.915Z,71.25
2024-01-15T16:56:13.454Z,71.24
2024-01-15T16:58:59.544Z,71.48
2024-01-15T17:01:45.001Z,71.56
2024-01-15T17:04:30.913Z,71.56
2024-01-15T17:07:16.687Z,71.39
2024-01-15T17:10:04.623Z,71.10
2024-01-15T17:12:50.049Z,71.50
2024-01-15T17:15:35.759Z,71.39
2024-01-15T17:18:21.723Z,71.38
2024-01-15T17:21:07.628Z,71.29
2024-01-15T17:23:53.402Z,71.21
2024-01-15T17:26:38.993Z,71.23
2024-01-15T17:29:24.472Z,71.34
2024-01-15T17:32:10.223Z,71.68
2024-01-15T17:34:56.007Z,71.71
2024-01-15T17:37:41.769Z,71.76
2024-01-15T17:40:27.134Z,71.39
2024-01-15T17:43:12.547Z,71.64
2024-01-15T17:46:02.015Z,71.93
2024-01-15T17:48:49.295Z,72.10
2024-01-15T17:51:35.558Z,72.05
2024-01-15T17:54:21.545Z,72.38
2024-01-15T17:57:07.085Z,72.41
2024-01-15T17:59:52.573Z,72.73
2024-01-15T18:02:39.473Z,72.24
2024-01-15T18:05:25.514Z,72.57
2024-01-15T18:08:11.350Z,72.38
2024-01-15T18:10:56.939Z,72.30
2024-01-15T18:13:42.468Z,72.34
2024-01-15T18:16:28.799Z,72.37
2024-01-15T18:19:14.623Z,72.46
2024-01-15T18:21:59.959Z,72.38
2024-01-15T18:24:46.456Z,72.75
2024-01-15T18:27:32.152Z,72.38
2024-01-15T18:30:17.880Z,72.35
2024-01-15T18:33:03.749Z,72.22
2024-01-15T18:35:49.620Z,72.61
2024-01-15T18:38:35.346Z,72.02
2024-01-15T18:41:27.557Z,72.16
2024-01-15T18:44:13.327Z,72.45
2024-01-15T18:46:59.377Z,72.47
2024-01-15T18:49:44.855Z,72.35
2024-01-15T18:52:30.302Z,72.35
2024-01-15T18:55:15.925Z,72.13
2024-01-15T18:58:01.527Z,72.18
2024-01-15T19:00:47.313Z,72.10
2024-01-15T19:03:32.765Z,71.87
2024-01-15T19:06:18.313Z,71.86
2024-01-15T19:09:04.914Z,71.67
2024-01-15T19:11:50.785Z,71.56
2024-01-15T19:14:36.498Z,71.46
2024-01-15T19:17:22.037Z,71.98
2024-01-15T19:20:08.605Z,71.79
2024-01-15T19:22:54.570Z,71.56
2024-01-15T19:25:40.889Z,71.34
2024-01-15T19:28:26.648Z,71.50
2024-01-15T19:31:12.733Z,71.72
2024-01-15T19:33:58.544Z,71.22
2024-01-15T19:36:44.534Z,71.19
2024-01-15T19:39:30.094Z,71.37
2024-01-15T19:42:15.533Z,71.33
2024-01-15T19:45:01.101Z,71.21
2024-01-15T19:47:46.695Z,71.69
2024-01-15T19:50:32.086Z,71.55
2024-01-15T19:53:17.641Z,71.61
2024-01-15T19:56:03.121Z,71.79
2024-01-15T19:58:48.854Z,71.85
2024-01-15T20:01:34.891Z,71.84
2024-01-15T20:04:20.664Z,71.40
2024-01-15T20:07:05.989Z,71.50
2024-01-15T20:09:54.839Z,71.74
2024-01-15T20:12:40.997Z,71.40
2024-01-15T20:15:30.064Z,71.84
2024-01-15T20:18:15.791Z,71.38
2024-01-15T20:21:02.179Z,71.69
2024-01-15T20:23:55.065Z,71.61
2024-01-15T20:26:44.629Z,71.28
2024-01-15T20:29:30.249Z,71.64
2024-01-15T20:32:19.414Z,71.85
2024-01-15T20:35:06.191Z,71.67
2024-01-15T20:37:55.896Z,71.54
2024-01-15T20:40:42.205Z,71.94
2024-01-15T20:43:28.400Z,71.50
2024-01-15T20:46:14.383Z,71.96
2024-01-15T20:49:00.254Z,71.79
2024-01-15T20:51:46.228Z,72.00
2024-01-15T20:54:31.778Z,71.56
2024-01-15T20:57:17.260Z,71.30
2024-01-15T21:00:03.069Z,71.34
2024-01-15T21:02:49.017Z,71.46
2024-01-15T21:05:35.493Z,71.23
2024-01-15T21:08:21.351Z,71.14
2024-01-15T21:11:07.111Z,71.61
2024-01-15T21:13:52.714Z,71.42
2024-01-15T21:16:38.274Z,71.13
2024-01-15T21:19:24.475Z,71.29
2024-01-15T21:22:10.475Z,71.38
2024-01-15T21:24:55.932Z,71.08
2024-01-15T21:27:42.139Z,70.93
2024-01-15T21:30:28.091Z,71.03
2024-01-15T21:33:13.784Z,70.78
2024-01-15T21:35:59.424Z,70.85
2024-01-15T21:38:45.252Z,70.86
2024-01-15T21:41:30.941Z,70.49
2024-01-15T21:44:17.916Z,71.03
2024-01-15T21:47:03.306Z,70.79
2024-01-15T21:49:48.805Z,70.17
2024-01-15T21:52:34.399Z,70.51
2024-01-15T21:55:20.587Z,70.75
2024-01-15T21:58:06.297Z,70.64
2024-01-15T22:00:51.855Z,70.60
2024-01-15T22:03:40.611Z,71.09
2024-01-15T22:06:26.166Z,70.93
2024-01-15T22:09:11.571Z,70.95
2024-01-15T22:11:57.492Z,70.50
2024-01-15T22:14:43.036Z,70.73
2024-01-15T22:17:28.500Z,70.69
2024-01-15T22:20:14.118Z,70.85
2024-01-15T22:22:59.717Z,70.72
2024-01-15T22:25:45.192Z,70.63
2024-01-15T22:28:31.708Z,70.63
2024-01-15T22:31:17.171Z,70.48
2024-01-15T22:34:03.064Z,70.83
2024-01-15T22:36:48.134Z,70.72
2024-01-15T22:39:33.789Z,70.50
2024-01-15T22:42:19.938Z,70.38
2024-01-15T22:45:07.793Z,70.25
2024-01-15T22:47:53.788Z,70.03
2024-01-15T22:50:39.674Z,70.46
2024-01-15T22:53:25.173Z,70.47
2024-01-15T22:56:10.804Z,69.93
2024-01-15T22:58:56.391Z,69.88
2024-01-15T23:01:41.997Z,69.93
2024-01-15T23:04:28.394Z,70.04
2024-01-15T23:07:14.273Z,70.10
2024-01-15T23:10:00.348Z,70.02
2024-01-15T23:12:45.937Z,70.30
2024-01-15T23:15:31.990Z,70.34
2024-01-15T23:18:17.567Z,70.27
2024-01-15T23:21:03.293Z,70.12
2024-01-15T23:23:49.037Z,70.38
2024-01-15T23:26:35.041Z,70.13
2024-01-15T23:29:20.926Z,70.58
2024-01-15T23:32:06.902Z,70.14
2024-01-15T23:34:52.491Z,70.31
2024-01-15T23:37:38.833Z,70.21
2024-01-15T23:40:24.486Z,70.32
2024-01-15T23:43:10.233Z,70.11
2024-01-15T23:46:02.155Z,70.15
2024-01-15T23:48:52.026Z,70.01
2024-01-15T23:51:37.377Z,70.14
2024-01-15T23:54:22.893Z,70.33
2024-01-15T23:57:08.610Z,70.29
2024-01-15T23:59:54.118Z,70.30
